sensor_id;sensor_type;location;lat;lon;timestamp;temperature;humidity
14079;DHT22;7115;50.150;8.568;2023-03-23T00:01:53;15.40;95.30
14079;DHT22;7115;50.150;8.568;2023-03-23T00:04:19;15.30;95.30
14079;DHT22;7115;50.150;8.568;2023-03-23T00:06:46;15.40;95.30
14079;DHT22;7115;50.150;8.568;2023-03-23T00:09:14;15.30;95.30
14079;DHT22;7115;50.150;8.568;2023-03-23T00:11:41;15.30;95.30
14079;DHT22;7115;50.150;8.568;2023-03-23T00:14:10;15.30;95.40
14079;DHT22;7115;50.150;8.568;2023-03-23T00:16:39;15.30;95.40
14079;DHT22;7115;50.150;8.568;2023-03-23T00:19:07;15.30;95.50
14079;DHT22;7115;50.150;8.568;2023-03-23T00:21:35;15.30;95.50
14079;DHT22;7115;50.150;8.568;2023-03-23T00:24:04;15.30;95.50
14079;DHT22;7115;50.150;8.568;2023-03-23T00:26:34;15.20;95.60
14079;DHT22;7115;50.150;8.568;2023-03-23T00:29:02;15.20;95.60
14079;DHT22;7115;50.150;8.568;2023-03-23T00:31:28;15.20;95.70
14079;DHT22;7115;50.150;8.568;2023-03-23T00:33:57;15.10;95.90
14079;DHT22;7115;50.150;8.568;2023-03-23T00:36:24;15.10;95.80
14079;DHT22;7115;50.150;8.568;2023-03-23T00:38:50;15.10;95.90
14079;DHT22;7115;50.150;8.568;2023-03-23T00:41:16;15.00;96.00
14079;DHT22;7115;50.150;8.568;2023-03-23T00:43:43;15.00;96.00
14079;DHT22;7115;50.150;8.568;2023-03-23T00:46:09;15.00;96.10
14079;DHT22;7115;50.150;8.568;2023-03-23T00:48:36;15.00;96.20
14079;DHT22;7115;50.150;8.568;2023-03-23T00:51:02;15.00;96.30
14079;DHT22;7115;50.150;8.568;2023-03-23T00:53:31;15.00;96.30
14079;DHT22;7115;50.150;8.568;2023-03-23T00:55:57;14.90;96.40
14079;DHT22;7115;50.150;8.568;2023-03-23T00:58:23;14.90;96.50
14079;DHT22;7115;50.150;8.568;2023-03-23T01:00:50;14.90;96.50
14079;DHT22;7115;50.150;8.568;2023-03-23T01:03:16;14.90;96.60
14079;DHT22;7115;50.150;8.568;2023-03-23T01:05:44;14.80;96.70
14079;DHT22;7115;50.150;8.568;2023-03-23T01:08:13;14.80;96.70
14079;DHT22;7115;50.150;8.568;2023-03-23T01:10:39;14.80;96.80
14079;DHT22;7115;50.150;8.568;2023-03-23T01:13:06;14.80;96.80
14079;DHT22;7115;50.150;8.568;2023-03-23T01:15:31;14.80;96.90
14079;DHT22;7115;50.150;8.568;2023-03-23T01:17:59;14.70;97.00
14079;DHT22;7115;50.150;8.568;2023-03-23T01:20:25;14.70;97.00
14079;DHT22;7115;50.150;8.568;2023-03-23T01:22:52;14.70;97.10
14079;DHT22;7115;50.150;8.568;2023-03-23T01:25:19;14.70;97.10
14079;DHT22;7115;50.150;8.568;2023-03-23T01:27:45;14.80;97.20
14079;DHT22;7115;50.150;8.568;2023-03-23T01:30:12;14.80;97.30
14079;DHT22;7115;50.150;8.568;2023-03-23T01:32:38;14.80;97.30
14079;DHT22;7115;50.150;8.568;2023-03-23T01:35:05;14.90;97.40
14079;DHT22;7115;50.150;8.568;2023-03-23T01:37:31;14.70;97.40
14079;DHT22;7115;50.150;8.568;2023-03-23T01:39:58;14.70;97.50
14079;DHT22;7115;50.150;8.568;2023-03-23T01:42:24;14.70;97.60
14079;DHT22;7115;50.150;8.568;2023-03-23T01:45:26;14.70;97.60
14079;DHT22;7115;50.150;8.568;2023-03-23T01:47:56;14.70;97.60
14079;DHT22;7115;50.150;8.568;2023-03-23T01:50:25;14.60;97.60
14079;DHT22;7115;50.150;8.568;2023-03-23T01:52:53;14.60;97.70
14079;DHT22;7115;50.150;8.568;2023-03-23T01:55:21;14.60;97.80
14079;DHT22;7115;50.150;8.568;2023-03-23T01:57:47;14.50;97.80
14079;DHT22;7115;50.150;8.568;2023-03-23T02:00:15;14.50;97.80
14079;DHT22;7115;50.150;8.568;2023-03-23T02:02:43;14.40;97.90
14079;DHT22;7115;50.150;8.568;2023-03-23T02:05:14;14.40;97.90
14079;DHT22;7115;50.150;8.568;2023-03-23T02:07:41;14.40;98.00
14079;DHT22;7115;50.150;8.568;2023-03-23T02:10:09;14.20;98.00
14079;DHT22;7115;50.150;8.568;2023-03-23T02:12:35;14.40;98.10
14079;DHT22;7115;50.150;8.568;2023-03-23T02:15:01;14.30;98.10
14079;DHT22;7115;50.150;8.568;2023-03-23T02:17:36;14.30;98.10
14079;DHT22;7115;50.150;8.568;2023-03-23T02:20:17;14.30;98.20
14079;DHT22;7115;50.150;8.568;2023-03-23T02:26:03;14.40;98.30
14079;DHT22;7115;50.150;8.568;2023-03-23T02:28:54;14.40;98.30
14079;DHT22;7115;50.150;8.568;2023-03-23T02:31:45;14.40;98.40
14079;DHT22;7115;50.150;8.568;2023-03-23T02:34:16;14.30;98.40
14079;DHT22;7115;50.150;8.568;2023-03-23T02:36:46;14.40;98.40
14079;DHT22;7115;50.150;8.568;2023-03-23T02:39:17;14.30;98.50
14079;DHT22;7115;50.150;8.568;2023-03-23T02:41:49;14.30;98.50
14079;DHT22;7115;50.150;8.568;2023-03-23T02:44:16;14.30;98.50
14079;DHT22;7115;50.150;8.568;2023-03-23T02:46:43;14.30;98.50
14079;DHT22;7115;50.150;8.568;2023-03-23T02:49:14;14.30;98.50
14079;DHT22;7115;50.150;8.568;2023-03-23T02:51:43;14.30;98.60
14079;DHT22;7115;50.150;8.568;2023-03-23T02:54:11;14.30;98.80
14079;DHT22;7115;50.150;8.568;2023-03-23T02:56:38;14.30;98.90
14079;DHT22;7115;50.150;8.568;2023-03-23T02:59:05;14.30;99.10
14079;DHT22;7115;50.150;8.568;2023-03-23T03:01:51;14.20;99.30
14079;DHT22;7115;50.150;8.568;2023-03-23T03:04:22;14.10;99.70
14079;DHT22;7115;50.150;8.568;2023-03-23T03:06:57;14.10;99.80
14079;DHT22;7115;50.150;8.568;2023-03-23T03:09:31;14.00;99.90
14079;DHT22;7115;50.150;8.568;2023-03-23T03:12:03;14.00;99.90
14079;DHT22;7115;50.150;8.568;2023-03-23T03:14:35;14.00;99.90
14079;DHT22;7115;50.150;8.568;2023-03-23T03:17:06;13.90;99.90
14079;DHT22;7115;50.150;8.568;2023-03-23T03:19:39;13.90;99.90
14079;DHT22;7115;50.150;8.568;2023-03-23T03:22:06;13.80;99.90
14079;DHT22;7115;50.150;8.568;2023-03-23T03:24:35;13.80;99.90
14079;DHT22;7115;50.150;8.568;2023-03-23T03:27:10;13.80;99.90
14079;DHT22;7115;50.150;8.568;2023-03-23T03:29:40;13.80;99.90
14079;DHT22;7115;50.150;8.568;2023-03-23T03:32:12;13.70;99.90
14079;DHT22;7115;50.150;8.568;2023-03-23T03:34:40;13.70;99.90
14079;DHT22;7115;50.150;8.568;2023-03-23T03:37:06;13.70;99.90
14079;DHT22;7115;50.150;8.568;2023-03-23T03:39:34;13.70;99.90
14079;DHT22;7115;50.150;8.568;2023-03-23T03:42:00;13.70;99.90
14079;DHT22;7115;50.150;8.568;2023-03-23T03:44:26;13.70;99.90
14079;DHT22;7115;50.150;8.568;2023-03-23T03:46:52;13.70;99.90
14079;DHT22;7115;50.150;8.568;2023-03-23T03:49:18;13.70;99.90
14079;DHT22;7115;50.150;8.568;2023-03-23T03:51:45;13.70;99.90
14079;DHT22;7115;50.150;8.568;2023-03-23T03:54:11;13.70;99.90
14079;DHT22;7115;50.150;8.568;2023-03-23T03:56:37;13.70;99.90
14079;DHT22;7115;50.150;8.568;2023-03-23T03:59:06;13.70;99.90
14079;DHT22;7115;50.150;8.568;2023-03-23T04:01:34;13.70;99.90
14079;DHT22;7115;50.150;8.568;2023-03-23T04:04:00;13.70;99.90
14079;DHT22;7115;50.150;8.568;2023-03-23T04:06:26;13.70;99.90
14079;DHT22;7115;50.150;8.568;2023-03-23T04:08:54;13.70;99.90
14079;DHT22;7115;50.150;8.568;2023-03-23T04:11:20;13.70;99.90
14079;DHT22;7115;50.150;8.568;2023-03-23T04:13:46;13.80;99.90
14079;DHT22;7115;50.150;8.568;2023-03-23T04:16:12;13.80;99.90
14079;DHT22;7115;50.150;8.568;2023-03-23T04:18:38;13.80;99.90
14079;DHT22;7115;50.150;8.568;2023-03-23T04:21:05;13.80;99.90
14079;DHT22;7115;50.150;8.568;2023-03-23T04:23:33;13.80;99.90
14079;DHT22;7115;50.150;8.568;2023-03-23T04:26:03;13.90;99.90
14079;DHT22;7115;50.150;8.568;2023-03-23T04:28:29;13.80;99.90
14079;DHT22;7115;50.150;8.568;2023-03-23T04:30:59;13.80;99.90
14079;DHT22;7115;50.150;8.568;2023-03-23T04:33:26;13.80;99.90
14079;DHT22;7115;50.150;8.568;2023-03-23T04:35:53;13.90;99.90
14079;DHT22;7115;50.150;8.568;2023-03-23T04:38:21;13.80;99.90
14079;DHT22;7115;50.150;8.568;2023-03-23T04:40:49;13.80;99.90
14079;DHT22;7115;50.150;8.568;2023-03-23T04:43:18;13.80;99.90
14079;DHT22;7115;50.150;8.568;2023-03-23T04:45:47;13.80;99.90
14079;DHT22;7115;50.150;8.568;2023-03-23T04:48:13;13.80;99.90
14079;DHT22;7115;50.150;8.568;2023-03-23T04:50:39;13.80;99.90
14079;DHT22;7115;50.150;8.568;2023-03-23T04:53:05;13.80;99.90
14079;DHT22;7115;50.150;8.568;2023-03-23T04:55:33;13.70;99.90
14079;DHT22;7115;50.150;8.568;2023-03-23T04:58:02;13.80;99.90
14079;DHT22;7115;50.150;8.568;2023-03-23T05:00:30;13.80;99.90
14079;DHT22;7115;50.150;8.568;2023-03-23T05:02:56;13.90;99.90
14079;DHT22;7115;50.150;8.568;2023-03-23T05:05:23;13.90;99.90
14079;DHT22;7115;50.150;8.568;2023-03-23T05:07:50;14.00;99.90
14079;DHT22;7115;50.150;8.568;2023-03-23T05:10:17;14.00;99.90
14079;DHT22;7115;50.150;8.568;2023-03-23T05:12:43;14.10;99.90
14079;DHT22;7115;50.150;8.568;2023-03-23T05:15:11;14.10;99.90
14079;DHT22;7115;50.150;8.568;2023-03-23T05:17:39;14.10;99.90
14079;DHT22;7115;50.150;8.568;2023-03-23T05:20:07;14.10;99.90
14079;DHT22;7115;50.150;8.568;2023-03-23T05:22:37;14.10;99.90
14079;DHT22;7115;50.150;8.568;2023-03-23T05:25:04;14.10;99.90
14079;DHT22;7115;50.150;8.568;2023-03-23T05:27:30;14.10;99.90
14079;DHT22;7115;50.150;8.568;2023-03-23T05:29:56;13.90;99.90
14079;DHT22;7115;50.150;8.568;2023-03-23T05:32:24;14.10;99.90
14079;DHT22;7115;50.150;8.568;2023-03-23T05:34:56;14.00;99.90
14079;DHT22;7115;50.150;8.568;2023-03-23T05:37:22;14.00;99.90
14079;DHT22;7115;50.150;8.568;2023-03-23T05:39:48;14.00;99.90
14079;DHT22;7115;50.150;8.568;2023-03-23T05:42:14;14.10;99.90
14079;DHT22;7115;50.150;8.568;2023-03-23T05:44:40;14.00;99.90
14079;DHT22;7115;50.150;8.568;2023-03-23T05:47:05;14.00;99.90
14079;DHT22;7115;50.150;8.568;2023-03-23T05:49:31;13.90;99.90
14079;DHT22;7115;50.150;8.568;2023-03-23T05:51:59;13.90;99.90
14079;DHT22;7115;50.150;8.568;2023-03-23T05:54:25;13.90;99.90
14079;DHT22;7115;50.150;8.568;2023-03-23T05:56:51;13.80;99.90
14079;DHT22;7115;50.150;8.568;2023-03-23T05:59:17;13.90;99.90
14079;DHT22;7115;50.150;8.568;2023-03-23T06:01:42;13.80;99.90
14079;DHT22;7115;50.150;8.568;2023-03-23T06:04:08;13.80;99.90
14079;DHT22;7115;50.150;8.568;2023-03-23T06:06:35;13.80;99.90
14079;DHT22;7115;50.150;8.568;2023-03-23T06:09:03;13.70;99.90
14079;DHT22;7115;50.150;8.568;2023-03-23T06:11:28;13.70;99.90
14079;DHT22;7115;50.150;8.568;2023-03-23T06:13:55;13.70;99.90
14079;DHT22;7115;50.150;8.568;2023-03-23T06:16:20;13.70;99.90
14079;DHT22;7115;50.150;8.568;2023-03-23T06:18:46;13.70;99.90
14079;DHT22;7115;50.150;8.568;2023-03-23T06:21:14;13.60;99.90
14079;DHT22;7115;50.150;8.568;2023-03-23T06:23:39;13.60;99.90
14079;DHT22;7115;50.150;8.568;2023-03-23T06:26:07;13.60;99.90
14079;DHT22;7115;50.150;8.568;2023-03-23T06:28:34;13.60;99.90
14079;DHT22;7115;50.150;8.568;2023-03-23T06:31:00;13.60;99.90
14079;DHT22;7115;50.150;8.568;2023-03-23T06:33:27;13.60;99.90
14079;DHT22;7115;50.150;8.568;2023-03-23T06:35:53;13.60;99.90
14079;DHT22;7115;50.150;8.568;2023-03-23T06:38:19;13.60;99.90
14079;DHT22;7115;50.150;8.568;2023-03-23T06:40:45;13.60;99.90
14079;DHT22;7115;50.150;8.568;2023-03-23T06:43:13;13.50;99.90
14079;DHT22;7115;50.150;8.568;2023-03-23T06:45:39;13.60;99.90
14079;DHT22;7115;50.150;8.568;2023-03-23T06:48:06;13.60;99.90
14079;DHT22;7115;50.150;8.568;2023-03-23T06:50:32;13.60;99.90
14079;DHT22;7115;50.150;8.568;2023-03-23T06:52:58;13.60;99.90
14079;DHT22;7115;50.150;8.568;2023-03-23T06:55:24;13.60;99.90
14079;DHT22;7115;50.150;8.568;2023-03-23T06:57:50;13.60;99.90
14079;DHT22;7115;50.150;8.568;2023-03-23T07:00:18;13.60;99.90
14079;DHT22;7115;50.150;8.568;2023-03-23T07:02:44;13.60;99.90
14079;DHT22;7115;50.150;8.568;2023-03-23T07:05:10;13.60;99.90
14079;DHT22;7115;50.150;8.568;2023-03-23T07:07:37;13.60;99.90
14079;DHT22;7115;50.150;8.568;2023-03-23T07:10:04;13.60;99.90
14079;DHT22;7115;50.150;8.568;2023-03-23T07:12:30;13.70;99.90
14079;DHT22;7115;50.150;8.568;2023-03-23T07:14:56;13.60;99.90
14079;DHT22;7115;50.150;8.568;2023-03-23T07:17:23;13.60;99.90
14079;DHT22;7115;50.150;8.568;2023-03-23T07:19:49;13.60;99.90
14079;DHT22;7115;50.150;8.568;2023-03-23T07:22:15;13.60;99.90
14079;DHT22;7115;50.150;8.568;2023-03-23T07:24:41;13.60;99.90
14079;DHT22;7115;50.150;8.568;2023-03-23T07:27:08;13.50;99.90
14079;DHT22;7115;50.150;8.568;2023-03-23T07:29:34;13.50;99.90
14079;DHT22;7115;50.150;8.568;2023-03-23T07:32:04;13.50;99.90
14079;DHT22;7115;50.150;8.568;2023-03-23T07:34:32;13.50;99.90
14079;DHT22;7115;50.150;8.568;2023-03-23T07:36:58;13.50;99.90
14079;DHT22;7115;50.150;8.568;2023-03-23T07:39:25;13.50;99.90
14079;DHT22;7115;50.150;8.568;2023-03-23T07:41:51;13.50;99.90
14079;DHT22;7115;50.150;8.568;2023-03-23T07:44:17;13.50;99.90
14079;DHT22;7115;50.150;8.568;2023-03-23T07:46:43;13.50;99.90
14079;DHT22;7115;50.150;8.568;2023-03-23T07:49:09;13.50;99.90
14079;DHT22;7115;50.150;8.568;2023-03-23T07:51:37;13.50;99.90
14079;DHT22;7115;50.150;8.568;2023-03-23T07:54:04;13.50;99.90
14079;DHT22;7115;50.150;8.568;2023-03-23T07:56:31;13.60;99.90
14079;DHT22;7115;50.150;8.568;2023-03-23T07:58:57;13.60;99.90
14079;DHT22;7115;50.150;8.568;2023-03-23T08:01:22;13.60;99.90
14079;DHT22;7115;50.150;8.568;2023-03-23T08:03:51;13.60;99.90
14079;DHT22;7115;50.150;8.568;2023-03-23T08:06:17;13.60;99.90
14079;DHT22;7115;50.150;8.568;2023-03-23T08:08:45;13.60;99.90
14079;DHT22;7115;50.150;8.568;2023-03-23T08:11:11;13.60;99.90
14079;DHT22;7115;50.150;8.568;2023-03-23T08:13:37;13.70;99.90
14079;DHT22;7115;50.150;8.568;2023-03-23T08:16:04;13.70;99.90
14079;DHT22;7115;50.150;8.568;2023-03-23T08:18:31;13.70;99.90
14079;DHT22;7115;50.150;8.568;2023-03-23T08:20:57;13.80;99.90
14079;DHT22;7115;50.150;8.568;2023-03-23T08:23:24;13.70;99.90
14079;DHT22;7115;50.150;8.568;2023-03-23T08:25:52;13.70;99.90
14079;DHT22;7115;50.150;8.568;2023-03-23T08:28:19;13.70;99.90
14079;DHT22;7115;50.150;8.568;2023-03-23T08:30:45;13.70;99.90
14079;DHT22;7115;50.150;8.568;2023-03-23T08:33:11;13.70;99.90
14079;DHT22;7115;50.150;8.568;2023-03-23T08:35:37;13.70;99.90
14079;DHT22;7115;50.150;8.568;2023-03-23T08:38:04;13.70;99.90
14079;DHT22;7115;50.150;8.568;2023-03-23T08:40:30;13.70;99.90
14079;DHT22;7115;50.150;8.568;2023-03-23T08:42:57;13.70;99.90
14079;DHT22;7115;50.150;8.568;2023-03-23T08:45:24;13.70;99.90
14079;DHT22;7115;50.150;8.568;2023-03-23T08:47:51;13.80;99.90
14079;DHT22;7115;50.150;8.568;2023-03-23T08:50:22;13.70;99.90
14079;DHT22;7115;50.150;8.568;2023-03-23T08:52:48;13.80;99.90
14079;DHT22;7115;50.150;8.568;2023-03-23T08:55:16;13.80;99.90
14079;DHT22;7115;50.150;8.568;2023-03-23T08:57:43;13.80;99.90
14079;DHT22;7115;50.150;8.568;2023-03-23T09:00:14;13.90;99.90
14079;DHT22;7115;50.150;8.568;2023-03-23T09:02:44;13.90;99.90
14079;DHT22;7115;50.150;8.568;2023-03-23T09:05:11;13.90;99.90
14079;DHT22;7115;50.150;8.568;2023-03-23T09:07:37;13.90;99.90
14079;DHT22;7115;50.150;8.568;2023-03-23T09:10:04;14.00;99.90
14079;DHT22;7115;50.150;8.568;2023-03-23T09:12:30;14.00;99.90
14079;DHT22;7115;50.150;8.568;2023-03-23T09:14:56;14.00;99.90
14079;DHT22;7115;50.150;8.568;2023-03-23T09:17:23;14.00;99.90
14079;DHT22;7115;50.150;8.568;2023-03-23T09:19:49;14.10;99.90
14079;DHT22;7115;50.150;8.568;2023-03-23T09:22:16;14.20;99.90
14079;DHT22;7115;50.150;8.568;2023-03-23T09:24:45;14.20;99.90
14079;DHT22;7115;50.150;8.568;2023-03-23T09:27:11;14.20;99.90
14079;DHT22;7115;50.150;8.568;2023-03-23T09:29:38;14.30;99.90
14079;DHT22;7115;50.150;8.568;2023-03-23T09:32:04;14.40;99.90
14079;DHT22;7115;50.150;8.568;2023-03-23T09:34:31;14.40;99.90
14079;DHT22;7115;50.150;8.568;2023-03-23T09:37:01;14.50;99.90
14079;DHT22;7115;50.150;8.568;2023-03-23T09:39:30;14.50;99.90
14079;DHT22;7115;50.150;8.568;2023-03-23T09:42:10;14.50;99.90
14079;DHT22;7115;50.150;8.568;2023-03-23T09:44:49;14.60;99.90
14079;DHT22;7115;50.150;8.568;2023-03-23T09:47:25;14.70;99.90
14079;DHT22;7115;50.150;8.568;2023-03-23T09:50:02;14.80;99.90
14079;DHT22;7115;50.150;8.568;2023-03-23T09:52:36;15.00;99.90
14079;DHT22;7115;50.150;8.568;2023-03-23T09:55:03;15.20;99.90
14079;DHT22;7115;50.150;8.568;2023-03-23T09:57:34;15.30;99.90
14079;DHT22;7115;50.150;8.568;2023-03-23T10:00:08;15.40;99.90
14079;DHT22;7115;50.150;8.568;2023-03-23T10:02:39;15.40;99.90
14079;DHT22;7115;50.150;8.568;2023-03-23T10:05:23;15.40;99.90
14079;DHT22;7115;50.150;8.568;2023-03-23T10:07:50;15.50;99.90
14079;DHT22;7115;50.150;8.568;2023-03-23T10:10:17;15.40;99.90
14079;DHT22;7115;50.150;8.568;2023-03-23T10:12:48;15.40;99.90
14079;DHT22;7115;50.150;8.568;2023-03-23T10:15:18;15.30;99.90
14079;DHT22;7115;50.150;8.568;2023-03-23T10:17:50;15.20;99.90
14079;DHT22;7115;50.150;8.568;2023-03-23T10:20:29;15.20;99.90
14079;DHT22;7115;50.150;8.568;2023-03-23T10:23:05;15.20;99.90
14079;DHT22;7115;50.150;8.568;2023-03-23T10:25:35;15.10;99.90
14079;DHT22;7115;50.150;8.568;2023-03-23T10:28:06;15.00;99.90
14079;DHT22;7115;50.150;8.568;2023-03-23T10:30:37;15.00;99.90
14079;DHT22;7115;50.150;8.568;2023-03-23T10:33:08;14.90;99.90
14079;DHT22;7115;50.150;8.568;2023-03-23T10:35:38;14.90;99.90
14079;DHT22;7115;50.150;8.568;2023-03-23T10:38:11;14.90;99.90
14079;DHT22;7115;50.150;8.568;2023-03-23T10:40:49;14.90;99.90
14079;DHT22;7115;50.150;8.568;2023-03-23T10:43:17;14.90;99.90
14079;DHT22;7115;50.150;8.568;2023-03-23T10:45:44;14.90;99.90
14079;DHT22;7115;50.150;8.568;2023-03-23T10:48:14;15.10;99.90
14079;DHT22;7115;50.150;8.568;2023-03-23T10:50:45;15.00;99.90
14079;DHT22;7115;50.150;8.568;2023-03-23T10:53:16;15.10;99.90
14079;DHT22;7115;50.150;8.568;2023-03-23T10:55:44;15.10;99.90
14079;DHT22;7115;50.150;8.568;2023-03-23T10:58:13;15.10;99.90
14079;DHT22;7115;50.150;8.568;2023-03-23T11:00:47;15.10;99.90
14079;DHT22;7115;50.150;8.568;2023-03-23T11:06:06;15.10;99.90
14079;DHT22;7115;50.150;8.568;2023-03-23T11:08:36;15.00;99.90
14079;DHT22;7115;50.150;8.568;2023-03-23T11:11:11;15.00;99.90
14079;DHT22;7115;50.150;8.568;2023-03-23T11:13:40;15.00;99.90
14079;DHT22;7115;50.150;8.568;2023-03-23T11:16:08;15.00;99.90
14079;DHT22;7115;50.150;8.568;2023-03-23T11:18:36;15.00;99.90
14079;DHT22;7115;50.150;8.568;2023-03-23T11:21:06;14.90;99.90
14079;DHT22;7115;50.150;8.568;2023-03-23T11:23:34;14.90;99.90
14079;DHT22;7115;50.150;8.568;2023-03-23T11:26:11;14.80;99.90
14079;DHT22;7115;50.150;8.568;2023-03-23T11:28:43;14.90;99.90
14079;DHT22;7115;50.150;8.568;2023-03-23T11:31:10;15.00;99.90
14079;DHT22;7115;50.150;8.568;2023-03-23T11:33:47;15.20;99.90
14079;DHT22;7115;50.150;8.568;2023-03-23T11:36:15;15.40;99.90
14079;DHT22;7115;50.150;8.568;2023-03-23T11:38:42;15.40;99.90
14079;DHT22;7115;50.150;8.568;2023-03-23T11:41:10;15.90;99.90
14079;DHT22;7115;50.150;8.568;2023-03-23T11:43:40;16.10;99.90
14079;DHT22;7115;50.150;8.568;2023-03-23T11:46:13;16.30;99.90
14079;DHT22;7115;50.150;8.568;2023-03-23T11:48:45;16.40;99.90
14079;DHT22;7115;50.150;8.568;2023-03-23T11:51:17;16.40;99.90
14079;DHT22;7115;50.150;8.568;2023-03-23T11:53:48;16.30;99.90
14079;DHT22;7115;50.150;8.568;2023-03-23T11:56:22;16.20;99.90
14079;DHT22;7115;50.150;8.568;2023-03-23T11:58:49;16.20;99.90
14079;DHT22;7115;50.150;8.568;2023-03-23T12:01:24;16.20;99.90
14079;DHT22;7115;50.150;8.568;2023-03-23T12:04:04;16.20;99.90
14079;DHT22;7115;50.150;8.568;2023-03-23T12:06:45;16.20;99.90
14079;DHT22;7115;50.150;8.568;2023-03-23T12:09:23;16.30;99.90
14079;DHT22;7115;50.150;8.568;2023-03-23T12:11:58;16.30;99.90
14079;DHT22;7115;50.150;8.568;2023-03-23T12:14:33;16.30;99.90
14079;DHT22;7115;50.150;8.568;2023-03-23T12:17:13;16.10;99.90
14079;DHT22;7115;50.150;8.568;2023-03-23T12:19:48;16.00;99.90
14079;DHT22;7115;50.150;8.568;2023-03-23T12:22:25;15.90;99.90
14079;DHT22;7115;50.150;8.568;2023-03-23T12:25:05;15.80;99.90
14079;DHT22;7115;50.150;8.568;2023-03-23T12:27:40;15.70;99.90
14079;DHT22;7115;50.150;8.568;2023-03-23T12:30:19;15.60;99.90
14079;DHT22;7115;50.150;8.568;2023-03-23T12:33:03;15.60;99.90
14079;DHT22;7115;50.150;8.568;2023-03-23T12:35:44;15.60;99.90
14079;DHT22;7115;50.150;8.568;2023-03-23T12:41:16;15.60;99.90
14079;DHT22;7115;50.150;8.568;2023-03-23T12:43:50;15.70;99.90
14079;DHT22;7115;50.150;8.568;2023-03-23T12:46:37;15.80;99.90
14079;DHT22;7115;50.150;8.568;2023-03-23T12:49:09;15.70;99.90
14079;DHT22;7115;50.150;8.568;2023-03-23T12:51:41;15.80;99.90
14079;DHT22;7115;50.150;8.568;2023-03-23T12:54:12;15.80;99.90
14079;DHT22;7115;50.150;8.568;2023-03-23T12:56:48;15.80;99.90
14079;DHT22;7115;50.150;8.568;2023-03-23T12:59:22;15.80;99.90
14079;DHT22;7115;50.150;8.568;2023-03-23T13:01:52;15.80;99.90
14079;DHT22;7115;50.150;8.568;2023-03-23T13:04:23;15.70;99.90
14079;DHT22;7115;50.150;8.568;2023-03-23T13:06:51;15.70;99.90
14079;DHT22;7115;50.150;8.568;2023-03-23T13:09:23;15.70;99.90
14079;DHT22;7115;50.150;8.568;2023-03-23T13:11:54;15.70;99.90
14079;DHT22;7115;50.150;8.568;2023-03-23T13:14:34;15.70;99.90
14079;DHT22;7115;50.150;8.568;2023-03-23T13:17:08;15.60;99.90
14079;DHT22;7115;50.150;8.568;2023-03-23T13:19:59;15.60;99.90
14079;DHT22;7115;50.150;8.568;2023-03-23T13:22:32;15.60;99.90
14079;DHT22;7115;50.150;8.568;2023-03-23T13:25:02;15.80;99.90
14079;DHT22;7115;50.150;8.568;2023-03-23T13:27:30;15.90;99.90
14079;DHT22;7115;50.150;8.568;2023-03-23T13:29:57;16.00;99.90
14079;DHT22;7115;50.150;8.568;2023-03-23T13:32:34;16.10;99.90
14079;DHT22;7115;50.150;8.568;2023-03-23T13:35:02;16.10;99.90
14079;DHT22;7115;50.150;8.568;2023-03-23T13:37:28;16.30;99.90
14079;DHT22;7115;50.150;8.568;2023-03-23T13:39:56;16.40;99.90
14079;DHT22;7115;50.150;8.568;2023-03-23T13:42:25;16.60;99.90
14079;DHT22;7115;50.150;8.568;2023-03-23T13:45:18;16.70;99.90
14079;DHT22;7115;50.150;8.568;2023-03-23T13:47:45;16.70;99.90
14079;DHT22;7115;50.150;8.568;2023-03-23T13:50:26;16.70;99.90
14079;DHT22;7115;50.150;8.568;2023-03-23T13:52:54;16.70;99.90
14079;DHT22;7115;50.150;8.568;2023-03-23T13:55:30;16.70;99.90
14079;DHT22;7115;50.150;8.568;2023-03-23T13:57:58;16.60;99.90
14079;DHT22;7115;50.150;8.568;2023-03-23T14:00:46;16.50;99.90
14079;DHT22;7115;50.150;8.568;2023-03-23T14:03:17;16.30;99.90
14079;DHT22;7115;50.150;8.568;2023-03-23T14:05:45;16.30;99.90
14079;DHT22;7115;50.150;8.568;2023-03-23T14:08:19;16.20;99.90
14079;DHT22;7115;50.150;8.568;2023-03-23T14:10:52;16.10;99.90
14079;DHT22;7115;50.150;8.568;2023-03-23T14:13:23;16.00;99.90
14079;DHT22;7115;50.150;8.568;2023-03-23T14:15:59;16.00;99.90
14079;DHT22;7115;50.150;8.568;2023-03-23T14:18:30;16.00;99.90
14079;DHT22;7115;50.150;8.568;2023-03-23T14:20:57;15.90;99.90
14079;DHT22;7115;50.150;8.568;2023-03-23T14:23:23;15.90;99.90
14079;DHT22;7115;50.150;8.568;2023-03-23T14:26:00;15.80;99.90
14079;DHT22;7115;50.150;8.568;2023-03-23T14:28:36;15.80;99.90
14079;DHT22;7115;50.150;8.568;2023-03-23T14:31:04;15.80;99.90
14079;DHT22;7115;50.150;8.568;2023-03-23T14:33:30;15.70;99.90
14079;DHT22;7115;50.150;8.568;2023-03-23T14:35:58;15.70;99.90
14079;DHT22;7115;50.150;8.568;2023-03-23T14:38:26;15.70;99.90
14079;DHT22;7115;50.150;8.568;2023-03-23T14:41:00;15.70;99.90
14079;DHT22;7115;50.150;8.568;2023-03-23T14:43:27;15.80;99.90
14079;DHT22;7115;50.150;8.568;2023-03-23T14:45:54;15.70;99.90
14079;DHT22;7115;50.150;8.568;2023-03-23T14:48:22;15.70;99.90
14079;DHT22;7115;50.150;8.568;2023-03-23T14:50:50;15.70;99.90
14079;DHT22;7115;50.150;8.568;2023-03-23T14:53:19;15.60;99.90
14079;DHT22;7115;50.150;8.568;2023-03-23T14:55:48;15.60;99.90
14079;DHT22;7115;50.150;8.568;2023-03-23T14:58:16;15.60;99.90
14079;DHT22;7115;50.150;8.568;2023-03-23T15:00:47;15.70;99.90
14079;DHT22;7115;50.150;8.568;2023-03-23T15:03:15;15.70;99.90
14079;DHT22;7115;50.150;8.568;2023-03-23T15:05:45;15.70;99.90
14079;DHT22;7115;50.150;8.568;2023-03-23T15:08:14;15.80;99.90
14079;DHT22;7115;50.150;8.568;2023-03-23T15:10:42;15.80;99.90
14079;DHT22;7115;50.150;8.568;2023-03-23T15:13:11;15.90;99.90
14079;DHT22;7115;50.150;8.568;2023-03-23T15:15:37;15.90;99.90
14079;DHT22;7115;50.150;8.568;2023-03-23T15:18:04;16.00;99.90
14079;DHT22;7115;50.150;8.568;2023-03-23T15:20:31;16.00;99.90
14079;DHT22;7115;50.150;8.568;2023-03-23T15:23:06;16.00;99.90
14079;DHT22;7115;50.150;8.568;2023-03-23T15:25:34;16.10;99.90
14079;DHT22;7115;50.150;8.568;2023-03-23T15:28:16;16.10;99.90
14079;DHT22;7115;50.150;8.568;2023-03-23T15:30:47;16.10;99.90
14079;DHT22;7115;50.150;8.568;2023-03-23T15:33:13;16.20;99.90
14079;DHT22;7115;50.150;8.568;2023-03-23T15:35:41;16.10;99.90
14079;DHT22;7115;50.150;8.568;2023-03-23T15:38:20;16.00;99.90
14079;DHT22;7115;50.150;8.568;2023-03-23T15:40:49;16.00;99.90
14079;DHT22;7115;50.150;8.568;2023-03-23T15:43:18;16.00;99.90
14079;DHT22;7115;50.150;8.568;2023-03-23T15:45:56;16.00;99.90
14079;DHT22;7115;50.150;8.568;2023-03-23T15:48:24;16.00;99.90
14079;DHT22;7115;50.150;8.568;2023-03-23T15:50:51;16.10;99.90
14079;DHT22;7115;50.150;8.568;2023-03-23T15:53:27;16.00;99.90
14079;DHT22;7115;50.150;8.568;2023-03-23T15:55:54;16.00;99.90
14079;DHT22;7115;50.150;8.568;2023-03-23T15:58:20;16.00;99.90
14079;DHT22;7115;50.150;8.568;2023-03-23T16:00:48;16.00;99.90
14079;DHT22;7115;50.150;8.568;2023-03-23T16:03:20;16.00;99.90
14079;DHT22;7115;50.150;8.568;2023-03-23T16:05:49;15.90;99.90
14079;DHT22;7115;50.150;8.568;2023-03-23T16:08:16;15.90;99.90